createdAt,value
2023-04-15T00:01:41.740Z,8.73
2023-04-15T00:04:09.423Z,7.67
2023-04-15T00:06:37.990Z,8.07
2023-04-15T00:09:05.246Z,8.23
2023-04-15T00:11:32.235Z,6.57
2023-04-15T00:13:59.429Z,9.17
2023-04-15T00:16:26.781Z,7.97
2023-04-15T00:18:53.704Z,7.87
2023-04-15T00:21:21.576Z,7.90
2023-04-15T00:23:52.719Z,7.37
2023-04-15T00:26:20.923Z,7.90
2023-04-15T00:28:47.934Z,9.10
2023-04-15T00:31:15.688Z,8.13
2023-04-15T00:33:42.730Z,7.20
2023-04-15T00:36:10.060Z,9.47
2023-04-15T00:38:38.624Z,7.30
2023-04-15T00:41:05.879Z,8.23
2023-04-15T00:43:32.804Z,8.20
2023-04-15T00:46:01.027Z,8.80
2023-04-15T00:48:28.349Z,7.10
2023-04-15T00:50:55.282Z,7.80
2023-04-15T00:53:22.226Z,8.10
2023-04-15T00:55:49.572Z,9.23
2023-04-15T00:58:17.371Z,7.73
2023-04-15T01:00:44.694Z,9.80
2023-04-15T01:03:11.854Z,9.10
2023-04-15T01:05:39.394Z,8.43
2023-04-15T01:08:06.655Z,8.37
2023-04-15T01:10:33.948Z,10.13
2023-04-15T01:13:00.934Z,9.47
2023-04-15T01:15:27.858Z,9.07
2023-04-15T01:17:55.061Z,9.20
2023-04-15T01:20:22.404Z,8.37
2023-04-15T01:22:50.183Z,8.27
2023-04-15T01:25:26.467Z,10.40
2023-04-15T01:27:53.602Z,10.10
2023-04-15T01:30:23.766Z,8.83
2023-04-15T01:32:51.264Z,9.03
2023-04-15T01:35:18.382Z,9.10
2023-04-15T01:37:45.610Z,8.83
2023-04-15T01:40:13.964Z,15.30
2023-04-15T01:42:41.131Z,9.27
2023-04-15T01:45:08.955Z,9.13
2023-04-15T01:47:35.895Z,9.17
2023-04-15T01:50:02.836Z,15.80
2023-04-15T01:52:29.697Z,12.93
2023-04-15T01:54:56.595Z,10.53
2023-04-15T01:57:23.515Z,9.03
2023-04-15T01:59:50.694Z,9.07
2023-04-15T02:02:17.955Z,9.50
2023-04-15T02:04:45.481Z,14.10
2023-04-15T02:07:12.499Z,10.23
2023-04-15T02:09:39.895Z,10.13
2023-04-15T02:12:06.847Z,11.37
2023-04-15T02:14:33.739Z,10.47
2023-04-15T02:17:07.203Z,11.67
2023-04-15T02:19:35.703Z,13.17
2023-04-15T02:22:02.922Z,11.30
2023-04-15T02:24:31.273Z,10.43
2023-04-15T02:26:58.260Z,10.00
2023-04-15T02:29:25.359Z,13.40
2023-04-15T02:31:52.661Z,10.40
2023-04-15T02:34:19.624Z,15.07
2023-04-15T02:36:48.871Z,12.10
2023-04-15T02:39:16.977Z,13.63
2023-04-15T02:41:47.651Z,13.60
2023-04-15T02:44:14.649Z,12.00
2023-04-15T02:46:41.589Z,13.67
2023-04-15T02:49:08.746Z,13.77
2023-04-15T02:51:35.653Z,13.53
2023-04-15T02:54:02.552Z,13.80
2023-04-15T02:56:30.346Z,13.33
2023-04-15T02:58:57.495Z,15.10
2023-04-15T03:01:24.533Z,12.30
2023-04-15T03:03:51.622Z,13.10
2023-04-15T03:06:18.508Z,15.90
2023-04-15T03:08:46.885Z,17.73
2023-04-15T03:11:15.059Z,14.47
2023-04-15T03:13:43.367Z,14.57
2023-04-15T03:16:10.797Z,12.93
2023-04-15T03:18:37.923Z,13.60
2023-04-15T03:21:05.200Z,14.67
2023-04-15T03:23:32.402Z,15.97
2023-04-15T03:26:02.796Z,15.20
2023-04-15T03:28:30.463Z,15.80
2023-04-15T03:30:57.644Z,19.23
2023-04-15T03:33:25.059Z,18.90
2023-04-15T03:35:53.302Z,17.37
2023-04-15T03:38:20.236Z,21.00
2023-04-15T03:40:47.648Z,28.23
2023-04-15T03:43:14.646Z,15.07
2023-04-15T03:45:41.758Z,17.70
2023-04-15T03:48:17.409Z,19.73
2023-04-15T03:50:45.121Z,16.80
2023-04-15T03:53:12.338Z,19.57
2023-04-15T03:55:39.370Z,17.07
2023-04-15T03:58:06.632Z,16.83
2023-04-15T04:00:33.681Z,19.57
2023-04-15T04:03:00.679Z,26.10
2023-04-15T04:05:27.791Z,20.27
2023-04-15T04:07:54.693Z,21.30
2023-04-15T04:10:21.748Z,19.60
2023-04-15T04:12:48.671Z,19.30
2023-04-15T04:15:16.099Z,23.77
2023-04-15T04:17:43.147Z,19.07
2023-04-15T04:20:10.554Z,19.60
2023-04-15T04:22:39.854Z,22.80
2023-04-15T04:25:08.721Z,28.00
2023-04-15T04:27:36.008Z,18.77
2023-04-15T04:30:03.193Z,20.10
2023-04-15T04:32:30.474Z,19.57
2023-04-15T04:34:57.563Z,18.93
2023-04-15T04:37:24.825Z,20.97
2023-04-15T04:39:51.800Z,23.00
2023-04-15T04:42:18.726Z,23.50
2023-04-15T04:44:45.645Z,25.00
2023-04-15T04:47:12.668Z,21.37
2023-04-15T04:49:39.674Z,19.00
2023-04-15T04:52:06.818Z,24.53
2023-04-15T04:54:33.991Z,21.90
2023-04-15T04:57:00.953Z,23.20
2023-04-15T04:59:28.287Z,21.07
2023-04-15T05:01:55.538Z,26.83
2023-04-15T05:04:22.485Z,25.63
2023-04-15T05:06:49.457Z,21.60
2023-04-15T05:09:18.809Z,22.63
2023-04-15T05:11:45.816Z,27.17
2023-04-15T05:14:12.815Z,26.93
2023-04-15T05:16:39.721Z,21.63
2023-04-15T05:19:07.825Z,26.17
2023-04-15T05:21:34.793Z,27.60
2023-04-15T05:24:01.754Z,25.67
2023-04-15T05:26:29.179Z,21.30
2023-04-15T05:28:56.118Z,19.80
2023-04-15T05:31:23.530Z,24.63
2023-04-15T05:33:50.651Z,22.40
2023-04-15T05:36:17.790Z,30.53
2023-04-15T05:38:44.750Z,20.77
2023-04-15T05:41:11.702Z,23.33
2023-04-15T05:43:38.645Z,26.83
2023-04-15T05:46:05.724Z,21.03
2023-04-15T05:48:32.695Z,24.57
2023-04-15T05:50:59.663Z,18.13
2023-04-15T05:53:26.730Z,20.53
2023-04-15T05:55:53.682Z,19.03
2023-04-15T05:58:20.821Z,20.10
2023-04-15T06:00:47.817Z,18.93
2023-04-15T06:03:14.729Z,20.60
2023-04-15T06:05:41.738Z,23.27
2023-04-15T06:08:08.679Z,24.40
2023-04-15T06:10:36.861Z,18.63
2023-04-15T06:13:04.394Z,21.87
2023-04-15T06:15:31.842Z,17.80
2023-04-15T06:17:59.898Z,18.33
2023-04-15T06:20:26.816Z,19.60
2023-04-15T06:22:53.881Z,17.80
2023-04-15T06:25:20.865Z,21.17
2023-04-15T06:27:48.446Z,21.50
2023-04-15T06:30:15.587Z,15.13
2023-04-15T06:32:42.821Z,15.67
2023-04-15T06:35:10.437Z,18.93
2023-04-15T06:37:37.595Z,17.50
2023-04-15T06:40:05.360Z,16.10
2023-04-15T06:42:32.767Z,18.43
2023-04-15T06:44:59.671Z,20.90
2023-04-15T06:47:26.853Z,17.20
2023-04-15T06:49:57.084Z,20.53
2023-04-15T06:52:24.021Z,15.60
2023-04-15T06:54:51.283Z,17.93
2023-04-15T06:57:18.234Z,28.00
2023-04-15T06:59:45.575Z,26.40
2023-04-15T07:02:13.514Z,29.63
2023-04-15T07:04:40.904Z,23.53
2023-04-15T07:07:08.446Z,16.80
2023-04-15T07:09:35.468Z,22.80
2023-04-15T07:12:02.941Z,21.90
2023-04-15T07:14:30.140Z,22.10
2023-04-15T07:16:57.743Z,14.87
2023-04-15T07:19:24.788Z,18.27
2023-04-15T07:21:52.007Z,19.27
2023-04-15T07:24:20.205Z,17.20
2023-04-15T07:26:47.318Z,16.33
2023-04-15T07:29:14.221Z,15.20
2023-04-15T07:31:42.485Z,18.60
2023-04-15T07:34:10.356Z,15.80
2023-04-15T07:36:39.753Z,15.13
2023-04-15T07:39:06.705Z,15.50
2023-04-15T07:41:33.952Z,15.30
2023-04-15T07:44:00.953Z,12.90
2023-04-15T07:46:28.581Z,15.40
2023-04-15T07:48:55.727Z,13.40
2023-04-15T07:51:23.682Z,13.30
2023-04-15T07:53:50.973Z,15.27
2023-04-15T07:56:20.226Z,15.37
2023-04-15T07:58:47.173Z,28.83
2023-04-15T08:01:14.252Z,16.67
2023-04-15T08:03:41.534Z,16.47
2023-04-15T08:06:08.657Z,15.13
2023-04-15T08:08:36.047Z,14.97
2023-04-15T08:11:03.034Z,12.93
2023-04-15T08:13:30.075Z,14.37
2023-04-15T08:16:26.967Z,15.60
2023-04-15T08:18:56.017Z,14.53
2023-04-15T08:21:23.023Z,15.70
2023-04-15T08:23:52.460Z,17.73
2023-04-15T08:26:22.492Z,14.63
2023-04-15T08:28:50.080Z,16.83
2023-04-15T08:31:19.259Z,18.90
2023-04-15T08:33:50.517Z,16.70
2023-04-15T08:36:17.862Z,18.10
2023-04-15T08:38:45.786Z,15.73
2023-04-15T08:41:20.757Z,16.40
2023-04-15T08:43:53.915Z,15.27
2023-04-15T08:46:22.059Z,15.80
2023-04-15T08:48:49.672Z,14.33
2023-04-15T08:51:19.979Z,26.57
2023-04-15T08:53:47.626Z,16.67
2023-04-15T08:56:16.969Z,14.13
2023-04-15T08:58:49.849Z,17.50
2023-04-15T09:01:17.565Z,16.10
2023-04-15T09:03:44.890Z,17.50
2023-04-15T09:06:12.432Z,15.60
2023-04-15T09:08:39.351Z,12.50
2023-04-15T09:11:06.653Z,12.80
2023-04-15T09:13:33.957Z,13.13
2023-04-15T09:16:06.637Z,13.97
2023-04-15T09:18:35.196Z,12.03
2023-04-15T09:21:15.392Z,16.70
2023-04-15T09:23:57.890Z,11.83
2023-04-15T09:26:45.200Z,10.30
2023-04-15T09:29:15.499Z,10.33
2023-04-15T09:31:43.904Z,11.30
2023-04-15T09:34:11.533Z,10.30
2023-04-15T09:36:57.182Z,11.67
2023-04-15T09:39:24.461Z,11.33
2023-04-15T09:42:07.699Z,9.63
2023-04-15T09:44:34.846Z,10.13
2023-04-15T09:47:03.296Z,15.10
2023-04-15T09:49:30.390Z,10.47
2023-04-15T09:52:05.782Z,12.40
2023-04-15T09:54:35.735Z,10.30
2023-04-15T09:57:10.450Z,10.43
2023-04-15T09:59:37.463Z,9.37
2023-04-15T10:02:08.582Z,12.33
2023-04-15T10:04:44.208Z,14.63
2023-04-15T10:07:12.853Z,12.97
2023-04-15T10:09:40.442Z,10.70
2023-04-15T10:12:08.114Z,13.20
2023-04-15T10:14:38.891Z,11.50
2023-04-15T10:17:07.740Z,12.40
2023-04-15T10:19:38.133Z,11.90
2023-04-15T10:22:05.431Z,16.20
2023-04-15T10:24:33.201Z,10.03
2023-04-15T10:27:01.048Z,11.03
2023-04-15T10:29:28.425Z,11.17
2023-04-15T10:31:57.176Z,10.80
2023-04-15T10:34:25.856Z,10.43
2023-04-15T10:36:57.496Z,14.40
2023-04-15T10:39:41.764Z,9.20
2023-04-15T10:42:14.126Z,10.33
2023-04-15T10:44:43.770Z,12.37
2023-04-15T10:47:19.729Z,12.00
2023-04-15T10:49:58.416Z,13.97
2023-04-15T10:52:27.692Z,18.27
2023-04-15T10:55:20.000Z,12.07
2023-04-15T10:57:47.104Z,11.03
2023-04-15T11:00:19.255Z,11.93
2023-04-15T11:02:56.911Z,12.50
2023-04-15T11:05:51.152Z,11.57
2023-04-15T11:08:18.943Z,12.57
2023-04-15T11:10:54.964Z,10.87
2023-04-15T11:13:23.729Z,15.50
2023-04-15T11:15:52.036Z,16.90
2023-04-15T11:18:30.803Z,15.17
2023-04-15T11:21:00.544Z,14.20
2023-04-15T11:23:39.282Z,11.87
2023-04-15T11:26:12.359Z,11.87
2023-04-15T11:28:41.921Z,10.07
2023-04-15T11:31:12.139Z,14.43
2023-04-15T11:33:57.518Z,15.40
2023-04-15T11:36:27.338Z,15.67
2023-04-15T11:38:54.392Z,15.77
2023-04-15T11:41:24.808Z,14.40
2023-04-15T11:43:52.425Z,13.47
2023-04-15T11:46:19.665Z,16.10
2023-04-15T11:48:47.598Z,13.47
2023-04-15T11:51:15.047Z,13.33
2023-04-15T11:53:50.276Z,14.70
2023-04-15T11:56:23.239Z,19.83
2023-04-15T11:58:57.136Z,14.90
2023-04-15T12:01:42.031Z,14.60
2023-04-15T12:04:14.352Z,12.40
2023-04-15T12:06:41.780Z,17.07
2023-04-15T12:09:13.644Z,13.43
2023-04-15T12:11:48.371Z,9.30
2023-04-15T12:14:34.371Z,11.43
2023-04-15T12:17:03.159Z,11.83
2023-04-15T12:19:42.079Z,9.77
2023-04-15T12:22:17.243Z,8.97
2023-04-15T12:24:48.181Z,10.80
2023-04-15T12:27:16.860Z,11.10
2023-04-15T12:29:44.054Z,12.73
2023-04-15T12:32:19.999Z,14.60
2023-04-15T12:34:50.803Z,12.30
2023-04-15T12:37:21.067Z,13.03
2023-04-15T12:39:50.056Z,9.57
2023-04-15T12:42:18.092Z,7.90
2023-04-15T12:44:45.243Z,6.77
2023-04-15T12:47:13.392Z,6.70
2023-04-15T12:49:41.356Z,6.50
2023-04-15T12:52:08.644Z,6.90
2023-04-15T12:54:36.557Z,7.50
2023-04-15T12:57:06.824Z,8.67
2023-04-15T12:59:34.830Z,9.67
2023-04-15T13:02:03.383Z,14.33
2023-04-15T13:04:31.327Z,8.83
2023-04-15T13:06:58.507Z,7.37
2023-04-15T13:09:25.934Z,7.33
2023-04-15T13:11:53.128Z,9.40
2023-04-15T13:14:20.593Z,9.53
2023-04-15T13:16:47.537Z,6.80
2023-04-15T13:19:15.089Z,7.33
2023-04-15T13:21:43.129Z,6.70
2023-04-15T13:24:10.167Z,6.67
2023-04-15T13:26:37.904Z,6.50
2023-04-15T13:29:05.134Z,6.23
2023-04-15T13:34:00.301Z,6.10
2023-04-15T13:36:27.629Z,8.40
2023-04-15T13:38:54.720Z,6.53
2023-04-15T13:41:22.048Z,6.70
2023-04-15T13:43:49.006Z,6.33
2023-04-15T13:46:16.179Z,7.43
2023-04-15T13:48:43.276Z,6.13
2023-04-15T13:51:10.182Z,4.57
2023-04-15T13:53:39.038Z,8.30
2023-04-15T13:56:10.000Z,4.40
2023-04-15T13:58:38.005Z,4.10
2023-04-15T14:01:07.407Z,4.50
2023-04-15T14:03:38.627Z,4.43
2023-04-15T14:06:06.526Z,6.20
2023-04-15T14:08:33.777Z,6.20
2023-04-15T14:11:00.930Z,7.50
2023-04-15T14:13:27.953Z,5.50
2023-04-15T14:15:54.967Z,6.30
2023-04-15T14:18:22.058Z,4.50
2023-04-15T14:20:49.128Z,5.13
2023-04-15T14:23:16.297Z,5.00
2023-04-15T14:25:44.147Z,4.57
2023-04-15T14:28:11.990Z,5.77
2023-04-15T14:30:40.718Z,6.30
2023-04-15T14:33:07.888Z,6.03
2023-04-15T14:35:35.202Z,6.60
2023-04-15T14:38:02.260Z,6.80
2023-04-15T14:40:29.223Z,6.90
2023-04-15T14:42:56.250Z,6.30
2023-04-15T14:45:23.297Z,6.50
2023-04-15T14:47:50.627Z,7.47
2023-04-15T14:50:17.784Z,7.33
2023-04-15T14:52:44.799Z,7.97
2023-04-15T14:55:12.982Z,6.87
2023-04-15T14:57:41.492Z,7.40
2023-04-15T15:00:10.681Z,7.07
2023-04-15T15:02:40.732Z,6.67
2023-04-15T15:05:09.049Z,7.00
2023-04-15T15:07:37.410Z,7.93
2023-04-15T15:10:05.048Z,7.00
2023-04-15T15:12:32.946Z,7.97
2023-04-15T15:15:01.584Z,7.40
2023-04-15T15:17:30.272Z,6.40
2023-04-15T15:19:57.498Z,8.30
2023-04-15T15:22:27.594Z,6.70
2023-04-15T15:24:54.595Z,8.53
2023-04-15T15:27:21.649Z,7.17
2023-04-15T15:29:49.111Z,9.33
2023-04-15T15:32:16.470Z,8.83
2023-04-15T15:34:43.850Z,8.40
2023-04-15T15:37:10.913Z,6.53
2023-04-15T15:39:37.845Z,5.90
2023-04-15T15:42:04.918Z,8.13
2023-04-15T15:44:33.495Z,7.73
2023-04-15T15:47:01.524Z,10.70
2023-04-15T15:49:29.105Z,9.40
2023-04-15T15:51:57.699Z,10.57
2023-04-15T15:54:25.219Z,10.50
2023-04-15T15:56:52.229Z,9.90
2023-04-15T15:59:19.215Z,8.37
2023-04-15T16:01:46.386Z,7.40
2023-04-15T16:04:13.877Z,8.70
2023-04-15T16:06:41.456Z,6.93
2023-04-15T16:09:08.481Z,6.20
2023-04-15T16:11:35.507Z,10.13
2023-04-15T16:14:02.738Z,7.40
2023-04-15T16:16:30.246Z,8.20
2023-04-15T16:19:02.522Z,11.40
2023-04-15T16:21:29.765Z,11.60
2023-04-15T16:23:56.746Z,11.97
2023-04-15T16:26:24.006Z,14.43
2023-04-15T16:28:50.977Z,12.07
2023-04-15T16:31:18.173Z,9.73
2023-04-15T16:33:45.493Z,10.73
2023-04-15T16:36:12.525Z,10.67
2023-04-15T16:38:39.461Z,8.90
2023-04-15T16:41:06.440Z,9.77
2023-04-15T16:43:33.377Z,11.50
2023-04-15T16:46:00.424Z,14.23
2023-04-15T16:48:27.563Z,8.83
2023-04-15T16:50:54.587Z,8.83
2023-04-15T16:53:21.580Z,7.93
2023-04-15T16:55:48.561Z,10.10
2023-04-15T16:58:15.662Z,10.70
2023-04-15T17:00:42.801Z,10.10
2023-04-15T17:03:09.989Z,15.30
2023-04-15T17:05:37.141Z,10.47
2023-04-15T17:08:05.289Z,10.90
2023-04-15T17:10:32.258Z,13.57
2023-04-15T17:12:59.600Z,12.07
2023-04-15T17:15:27.430Z,11.93
2023-04-15T17:17:54.605Z,16.57
2023-04-15T17:20:21.949Z,17.10
2023-04-15T17:22:49.131Z,13.93
2023-04-15T17:25:16.160Z,17.23
2023-04-15T17:27:43.184Z,18.47
2023-04-15T17:30:10.854Z,17.13
2023-04-15T17:32:40.318Z,18.27
2023-04-15T17:35:08.440Z,17.70
2023-04-15T17:37:35.960Z,13.00
2023-04-15T17:40:04.352Z,12.80
2023-04-15T17:42:32.447Z,16.70
2023-04-15T17:44:59.420Z,17.30
2023-04-15T17:47:26.357Z,17.53
2023-04-15T17:49:53.333Z,15.90
2023-04-15T17:52:20.350Z,19.80
2023-04-15T17:54:47.340Z,23.63
2023-04-15T17:57:14.336Z,17.00
2023-04-15T17:59:44.199Z,21.80
2023-04-15T18:02:11.832Z,18.77
2023-04-15T18:04:39.641Z,19.70
2023-04-15T18:07:06.955Z,16.10
2023-04-15T18:09:34.082Z,16.57
2023-04-15T18:12:02.179Z,14.20
2023-04-15T18:14:34.521Z,19.40
2023-04-15T18:17:03.332Z,21.57
2023-04-15T18:19:30.957Z,18.73
2023-04-15T18:22:00.576Z,20.33
2023-04-15T18:24:28.187Z,17.83
2023-04-15T18:26:55.259Z,23.97
2023-04-15T18:29:22.439Z,22.43
2023-04-15T18:31:49.606Z,21.07
2023-04-15T18:34:18.544Z,18.17
2023-04-15T18:36:46.293Z,22.57
2023-04-15T18:39:13.262Z,22.60
2023-04-15T18:41:40.192Z,21.37
2023-04-15T18:44:07.215Z,18.10
2023-04-15T18:46:34.350Z,16.43
2023-04-15T18:49:01.639Z,16.03
2023-04-15T18:51:28.539Z,21.43
2023-04-15T18:53:55.793Z,19.70
2023-04-15T18:56:23.867Z,16.00
2023-04-15T18:59:26.981Z,14.93
2023-04-15T19:01:37.897Z,13.60
2023-04-15T19:04:05.159Z,16.27
2023-04-15T19:06:32.473Z,35.57
2023-04-15T19:08:59.656Z,23.27
2023-04-15T19:11:26.652Z,18.57
2023-04-15T19:13:53.864Z,19.30
2023-04-15T19:16:21.165Z,18.00
2023-04-15T19:18:48.208Z,24.00
2023-04-15T19:21:16.142Z,20.10
2023-04-15T19:23:43.277Z,15.37
2023-04-15T19:26:11.805Z,24.93
2023-04-15T19:28:38.823Z,33.27
2023-04-15T19:31:06.151Z,25.47
2023-04-15T19:33:35.476Z,19.20
2023-04-15T19:36:04.409Z,19.93
2023-04-15T19:38:32.319Z,25.37
2023-04-15T19:40:59.420Z,20.77
2023-04-15T19:43:26.656Z,25.53
2023-04-15T19:45:54.970Z,24.00
2023-04-15T19:48:23.306Z,24.60
2023-04-15T19:50:50.599Z,24.50
2023-04-15T19:53:17.618Z,23.67
2023-04-15T19:55:44.690Z,24.70
2023-04-15T19:58:11.823Z,23.50
2023-04-15T20:00:38.979Z,29.60
2023-04-15T20:03:06.287Z,29.23
2023-04-15T20:05:33.383Z,25.27
2023-04-15T20:08:01.901Z,22.77
2023-04-15T20:10:28.964Z,32.03
2023-04-15T20:12:55.999Z,34.37
2023-04-15T20:15:24.093Z,29.17
2023-04-15T20:17:51.579Z,33.80
2023-04-15T20:20:18.791Z,32.73
2023-04-15T20:22:45.773Z,33.53
2023-04-15T20:25:12.923Z,32.30
2023-04-15T20:27:40.096Z,28.63
2023-04-15T20:30:08.013Z,39.37
2023-04-15T20:32:36.207Z,42.80
2023-04-15T20:35:07.706Z,41.50
2023-04-15T20:37:34.728Z,38.83
2023-04-15T20:40:02.533Z,42.27
2023-04-15T20:42:34.481Z,35.13
2023-04-15T20:45:02.268Z,46.30
2023-04-15T20:47:29.771Z,40.73
2023-04-15T20:49:56.953Z,43.27
2023-04-15T20:52:23.919Z,38.37
2023-04-15T20:54:51.384Z,38.70
2023-04-15T20:57:18.506Z,38.27
2023-04-15T20:59:45.418Z,41.40
2023-04-15T21:02:12.491Z,42.87
2023-04-15T21:04:39.526Z,41.73
2023-04-15T21:07:06.699Z,45.97
2023-04-15T21:09:33.688Z,38.70
2023-04-15T21:12:02.174Z,36.10
2023-04-15T21:14:29.891Z,46.03
2023-04-15T21:16:59.733Z,40.60
2023-04-15T21:19:26.636Z,55.43
2023-04-15T21:21:56.611Z,40.97
2023-04-15T21:24:23.556Z,39.03
2023-04-15T21:26:50.578Z,41.13
2023-04-15T21:29:17.567Z,47.07
2023-04-15T21:31:44.761Z,42.23
2023-04-15T21:34:12.143Z,40.67
2023-04-15T21:36:39.320Z,30.83
2023-04-15T21:39:08.952Z,35.10
2023-04-15T21:41:37.198Z,37.10
2023-04-15T21:44:04.761Z,40.07
2023-04-15T21:46:32.761Z,48.03
2023-04-15T21:49:00.397Z,40.53
2023-04-15T21:51:27.866Z,46.40
2023-04-15T21:53:54.855Z,39.20
2023-04-15T21:56:24.346Z,45.10
2023-04-15T21:58:54.350Z,36.93
2023-04-15T22:01:21.510Z,39.27
2023-04-15T22:03:48.685Z,41.47
2023-04-15T22:06:15.939Z,37.37
2023-04-15T22:08:55.106Z,40.37
2023-04-15T22:11:27.409Z,37.50
2023-04-15T22:13:55.094Z,45.73
2023-04-15T22:16:22.236Z,38.53
2023-04-15T22:18:49.269Z,41.50
2023-04-15T22:21:16.481Z,37.83
2023-04-15T22:23:47.544Z,53.20
2023-04-15T22:26:14.881Z,44.00
2023-04-15T22:28:42.293Z,42.03
2023-04-15T22:31:09.821Z,46.30
2023-04-15T22:33:37.152Z,47.13
2023-04-15T22:36:04.297Z,43.40
2023-04-15T22:38:31.431Z,46.87
2023-04-15T22:40:58.571Z,44.93
2023-04-15T22:43:26.190Z,50.67
2023-04-15T22:45:55.126Z,43.30
2023-04-15T22:48:23.238Z,40.67
2023-04-15T22:50:50.383Z,47.90
2023-04-15T22:53:17.898Z,43.27
2023-04-15T22:55:46.709Z,50.73
2023-04-15T22:58:14.106Z,54.37
2023-04-15T23:00:41.040Z,56.50
2023-04-15T23:03:08.426Z,48.37
2023-04-15T23:05:35.565Z,48.10
2023-04-15T23:08:02.586Z,52.80
2023-04-15T23:10:29.858Z,42.83
2023-04-15T23:12:56.780Z,48.50
2023-04-15T23:15:23.703Z,56.83
2023-04-15T23:17:50.839Z,51.63
2023-04-15T23:20:17.923Z,49.90
2023-04-15T23:22:45.219Z,50.67
2023-04-15T23:25:12.218Z,50.27
2023-04-15T23:27:39.115Z,62.37
2023-04-15T23:30:07.486Z,50.70
2023-04-15T23:32:35.170Z,54.77
2023-04-15T23:35:02.161Z,54.60
2023-04-15T23:37:30.628Z,53.77
2023-04-15T23:39:57.589Z,54.43
2023-04-15T23:42:24.793Z,48.60
2023-04-15T23:44:51.744Z,52.60
2023-04-15T23:47:18.756Z,52.07
2023-04-15T23:49:45.769Z,57.23
2023-04-15T23:52:12.713Z,60.43
2023-04-15T23:54:40.171Z,60.63
2023-04-15T23:57:07.062Z,45.57
2023-04-15T23:59:34.034Z,50.23
